Time;durP1;ratioP1;P1;durP2;ratioP2;P2;SDS_P1;SDS_P2;PMS_P1;PMS_P2;Temp;Humidity;BMP_temperature;BMP_pressure;BME280_temperature;BME280_humidity;BME280_pressure;Samples;Min_cycle;Max_cycle;Signal;HPM_P1;HPM_P2
2022/09/25 00:00:50;;;;;;;11.57;9.70;;;11.80;99.90;;;;;;5037396;28;20202;-89
2022/09/25 00:03:18;;;;;;;10.60;9.50;;;11.90;99.90;;;;;;5036561;28;20190;-89
2022/09/25 00:05:46;;;;;;;10.18;9.18;;;11.80;99.90;;;;;;5035570;28;20241;-87
2022/09/25 00:08:15;;;;;;;9.48;8.57;;;11.90;99.90;;;;;;5040133;28;20214;-88
2022/09/25 00:10:46;;;;;;;9.93;9.00;;;11.90;99.90;;;;;;5038429;28;20195;-88
2022/09/25 00:13:55;;;;;;;11.50;10.38;;;11.90;99.90;;;;;;5038394;28;20198;-88
2022/09/25 00:17:01;;;;;;;10.25;9.13;;;11.90;99.90;;;;;;5032618;28;20605;-88
2022/09/25 00:20:07;;;;;;;9.55;8.63;;;11.80;99.90;;;;;;5039541;28;20202;-87
2022/09/25 00:22:52;;;;;;;9.93;8.13;;;11.80;99.90;;;;;;5039736;28;20569;-87
2022/09/25 00:25:20;;;;;;;9.80;8.90;;;11.80;99.90;;;;;;5037959;28;20261;-87
2022/09/25 00:27:49;;;;;;;11.38;9.68;;;11.70;99.90;;;;;;5038505;28;20218;-87
2022/09/25 00:30:49;;;;;;;13.63;10.20;;;11.60;99.90;;;;;;5036927;28;20614;-88
2022/09/25 00:34:01;;;;;;;14.40;10.40;;;11.60;99.90;;;;;;5037273;28;20198;-88
2022/09/25 00:36:37;;;;;;;9.35;8.43;;;11.50;99.90;;;;;;5029076;28;20210;-88
2022/09/25 00:39:15;;;;;;;9.43;8.50;;;11.50;99.90;;;;;;5023222;28;20209;-88
2022/09/25 00:41:55;;;;;;;9.35;8.45;;;11.40;99.90;;;;;;5036659;28;20565;-90
2022/09/25 00:44:55;;;;;;;9.98;8.45;;;11.40;99.90;;;;;;5035546;28;20677;-88
2022/09/25 00:47:46;;;;;;;10.45;8.50;;;11.40;99.90;;;;;;4956168;28;20251;-88
2022/09/25 00:50:50;;;;;;;8.93;8.02;;;11.30;99.90;;;;;;4953837;28;20609;-89
2022/09/25 00:53:24;;;;;;;11.95;7.70;;;11.30;99.90;;;;;;4944365;28;20219;-88
2022/09/25 00:55:59;;;;;;;13.93;9.73;;;11.40;99.90;;;;;;4955765;29;20197;-88
2022/09/25 00:58:29;;;;;;;8.95;8.05;;;11.40;99.90;;;;;;4949269;29;20617;-88
2022/09/25 01:01:01;;;;;;;8.30;7.50;;;11.60;99.90;;;;;;4955826;29;20212;-89
2022/09/25 01:03:49;;;;;;;8.90;8.00;;;11.50;99.90;;;;;;4945109;29;20288;-88
2022/09/25 01:06:17;;;;;;;8.40;7.55;;;11.40;99.90;;;;;;4951314;28;20678;-88
2022/09/25 01:08:56;;;;;;;10.20;8.57;;;11.40;99.90;;;;;;4953574;28;20241;-88
2022/09/25 01:11:45;;;;;;;9.05;8.25;;;11.30;99.90;;;;;;4949028;28;20204;-88
2022/09/25 01:14:19;;;;;;;9.10;7.75;;;11.20;99.90;;;;;;4959884;28;20205;-88
2022/09/25 01:17:13;;;;;;;9.30;8.15;;;11.10;99.90;;;;;;4957611;28;20205;-88
2022/09/25 01:19:58;;;;;;;9.25;8.32;;;11.10;99.90;;;;;;4952967;28;20201;-88
2022/09/25 01:22:42;;;;;;;11.60;9.80;;;11.10;99.90;;;;;;4949504;29;20313;-88
2022/09/25 01:25:38;;;;;;;25.15;20.45;;;11.30;99.90;;;;;;5036689;28;20202;-89
2022/09/25 01:28:28;;;;;;;10.45;7.93;;;11.40;99.90;;;;;;5031900;28;20211;-88
2022/09/25 01:31:06;;;;;;;8.35;7.45;;;11.30;99.90;;;;;;5040719;28;20203;-88
2022/09/25 01:33:55;;;;;;;16.30;13.00;;;11.10;99.90;;;;;;5027215;28;20202;-88
2022/09/25 01:36:28;;;;;;;8.60;7.68;;;11.00;99.90;;;;;;5036895;28;20203;-88
2022/09/25 01:39:19;;;;;;;11.38;8.25;;;10.90;99.90;;;;;;5035829;28;20209;-87
2022/09/25 01:41:52;;;;;;;8.55;7.65;;;10.90;99.90;;;;;;5036473;28;20205;-88
2022/09/25 01:44:24;;;;;;;8.65;7.70;;;10.80;99.90;;;;;;5027463;28;20198;-88
2022/09/25 01:47:10;;;;;;;7.93;7.15;;;10.80;99.90;;;;;;5027622;28;20206;-87
2022/09/25 01:49:43;;;;;;;8.48;6.93;;;10.90;99.90;;;;;;5027209;28;20238;-88
2022/09/25 01:52:18;;;;;;;9.75;7.13;;;11.00;99.90;;;;;;5029123;28;20202;-88
2022/09/25 01:54:50;;;;;;;7.93;7.13;;;11.00;99.90;;;;;;5028205;28;20202;-88
2022/09/25 01:57:39;;;;;;;8.05;6.78;;;10.80;99.90;;;;;;5034412;28;20194;-89
2022/09/25 02:00:09;;;;;;;7.20;6.50;;;10.70;99.90;;;;;;5026683;28;20218;-88
2022/09/25 02:03:21;;;;;;;6.95;6.25;;;10.80;99.90;;;;;;5025477;28;20278;-89
2022/09/25 02:06:10;;;;;;;7.10;6.20;;;10.90;99.90;;;;;;5029230;28;20747;-88
2022/09/25 02:08:43;;;;;;;6.68;6.07;;;10.80;99.90;;;;;;5031458;28;20230;-88
2022/09/25 02:11:33;;;;;;;6.40;5.80;;;10.70;99.90;;;;;;5033989;28;20195;-89
2022/09/25 02:14:19;;;;;;;6.57;5.97;;;10.50;99.90;;;;;;5033749;28;20198;-88
2022/09/25 02:16:51;;;;;;;5.90;5.40;;;10.40;99.90;;;;;;5036356;28;20205;-90
2022/09/25 02:22:14;;;;;;;6.22;5.63;;;10.50;99.90;;;;;;5034999;28;20317;-89
2022/09/25 02:25:06;;;;;;;7.68;6.00;;;10.60;99.90;;;;;;5028461;28;20203;-88
2022/09/25 02:27:33;;;;;;;6.15;5.63;;;10.50;99.90;;;;;;5028991;28;20207;-88
2022/09/25 02:30:10;;;;;;;8.98;5.57;;;10.40;99.90;;;;;;5034495;28;20205;-88
2022/09/25 02:32:49;;;;;;;5.93;5.32;;;10.40;99.90;;;;;;5036819;28;20191;-88
2022/09/25 02:35:37;;;;;;;6.15;5.55;;;10.50;99.90;;;;;;5037866;28;20285;-88
2022/09/25 02:38:07;;;;;;;5.97;5.40;;;10.40;99.90;;;;;;5036683;28;20206;-88
2022/09/25 02:41:07;;;;;;;6.55;5.95;;;10.40;99.90;;;;;;5018773;28;20202;-90
2022/09/25 02:43:45;;;;;;;6.75;6.15;;;10.40;99.90;;;;;;5033701;28;20199;-88
2022/09/25 02:46:24;;;;;;;5.95;5.45;;;10.30;99.90;;;;;;5039449;28;20285;-89
2022/09/25 02:49:00;;;;;;;6.20;5.60;;;10.30;99.90;;;;;;5037868;28;20309;-87
2022/09/25 02:51:32;;;;;;;5.95;5.45;;;10.30;99.90;;;;;;5036649;28;20212;-89
2022/09/25 02:54:17;;;;;;;6.30;5.70;;;10.30;99.90;;;;;;5034385;28;20294;-89
2022/09/25 02:56:55;;;;;;;5.25;4.75;;;10.40;99.90;;;;;;5032719;28;20650;-90
2022/09/25 02:59:36;;;;;;;6.13;5.50;;;10.50;99.90;;;;;;5028645;28;20195;-88
2022/09/25 03:02:10;;;;;;;5.47;4.97;;;10.40;99.90;;;;;;5035780;28;20194;-89
2022/09/25 03:04:38;;;;;;;5.38;4.88;;;10.30;99.90;;;;;;5034466;28;20217;-88
2022/09/25 03:07:06;;;;;;;5.68;5.15;;;10.30;99.90;;;;;;5034320;28;20206;-88
2022/09/25 03:09:54;;;;;;;5.82;5.22;;;10.30;99.90;;;;;;5035000;28;20218;-89
2022/09/25 03:15:37;;;;;;;5.60;5.10;;;10.10;99.90;;;;;;5032934;28;20213;-89
2022/09/25 03:18:20;;;;;;;5.40;4.90;;;10.10;99.90;;;;;;5033448;28;20213;-89
2022/09/25 03:20:49;;;;;;;5.80;5.20;;;10.20;99.90;;;;;;5034815;28;20286;-88
2022/09/25 03:23:19;;;;;;;5.10;4.60;;;10.20;99.90;;;;;;5039030;28;20197;-90
2022/09/25 03:25:49;;;;;;;5.65;5.15;;;10.30;99.90;;;;;;5037701;28;20290;-88
2022/09/25 03:28:26;;;;;;;4.72;4.32;;;10.20;99.90;;;;;;5036502;28;20226;-89
2022/09/25 03:30:57;;;;;;;4.78;4.38;;;10.20;99.90;;;;;;5034373;28;20210;-88
2022/09/25 03:33:27;;;;;;;5.30;4.80;;;10.20;99.90;;;;;;5035577;28;20274;-89
2022/09/25 03:36:20;;;;;;;4.88;4.47;;;10.20;99.90;;;;;;5034840;28;20224;-89
2022/09/25 03:38:57;;;;;;;6.03;4.43;;;10.10;99.90;;;;;;5037381;28;20230;-88
2022/09/25 03:41:37;;;;;;;4.85;4.45;;;10.10;99.90;;;;;;5030313;28;20530;-88
2022/09/25 03:44:04;;;;;;;4.95;4.35;;;10.10;99.90;;;;;;5035015;28;20206;-88
2022/09/25 03:46:43;;;;;;;5.18;4.68;;;10.00;99.90;;;;;;5034839;28;20689;-89
2022/09/25 03:49:11;;;;;;;5.05;4.60;;;10.00;99.90;;;;;;5032302;28;20219;-89
2022/09/25 03:55:13;;;;;;;6.07;3.92;;;10.20;99.90;;;;;;5022211;28;20248;-88
2022/09/25 03:57:42;;;;;;;4.40;4.00;;;10.40;99.90;;;;;;5034774;28;20214;-89
2022/09/25 04:00:09;;;;;;;4.28;3.65;;;10.40;99.90;;;;;;5026807;28;20206;-88
2022/09/25 04:02:37;;;;;;;4.05;3.75;;;10.40;99.90;;;;;;5034920;28;20206;-88
2022/09/25 04:05:08;;;;;;;5.70;4.00;;;10.20;99.90;;;;;;5037508;28;20215;-88
2022/09/25 04:07:35;;;;;;;19.05;15.82;;;10.10;99.90;;;;;;5029018;28;20198;-88
2022/09/25 04:10:08;;;;;;;8.07;6.75;;;10.20;99.90;;;;;;5034801;28;20209;-89
2022/09/25 04:12:53;;;;;;;4.10;3.70;;;10.20;99.90;;;;;;5037809;28;20199;-88
2022/09/25 04:15:25;;;;;;;5.90;5.30;;;10.10;99.90;;;;;;5026987;28;20248;-88
2022/09/25 04:18:08;;;;;;;4.85;4.40;;;10.00;99.90;;;;;;5019976;28;20617;-88
2022/09/25 04:21:02;;;;;;;4.82;4.43;;;9.90;99.90;;;;;;5028854;28;20202;-88
2022/09/25 04:23:32;;;;;;;4.47;4.07;;;9.80;99.90;;;;;;5020854;28;20246;-88
2022/09/25 04:26:01;;;;;;;6.03;5.43;;;9.80;99.90;;;;;;5028231;28;20205;-88
2022/09/25 04:28:33;;;;;;;4.40;4.00;;;9.90;99.90;;;;;;5016843;28;20697;-88
2022/09/25 04:31:02;;;;;;;4.15;3.75;;;10.00;99.90;;;;;;5017248;28;20211;-88
2022/09/25 04:33:46;;;;;;;4.70;4.30;;;10.10;99.90;;;;;;5013767;28;20195;-88
2022/09/25 04:36:25;;;;;;;5.88;4.78;;;10.00;99.90;;;;;;5028356;28;20221;-89
2022/09/25 04:39:01;;;;;;;4.68;4.28;;;10.10;99.90;;;;;;5020888;28;20201;-88
2022/09/25 04:41:37;;;;;;;4.97;4.47;;;10.30;99.90;;;;;;5031001;28;20673;-89
2022/09/25 04:44:09;;;;;;;4.70;4.30;;;10.40;99.90;;;;;;5032930;28;20664;-89
2022/09/25 04:47:13;;;;;;;4.82;4.43;;;10.50;99.90;;;;;;5038397;28;20198;-88
2022/09/25 04:49:50;;;;;;;4.22;3.88;;;10.40;99.90;;;;;;5038395;28;20703;-89
2022/09/25 04:52:20;;;;;;;5.20;4.40;;;10.30;99.90;;;;;;5038993;28;20554;-89
2022/09/25 04:55:20;;;;;;;4.93;4.53;;;10.30;99.90;;;;;;5037428;28;20202;-89
2022/09/25 04:58:19;;;;;;;4.35;3.83;;;10.30;99.90;;;;;;5037246;28;20195;-90
2022/09/25 05:01:05;;;;;;;5.00;4.50;;;10.30;99.90;;;;;;5031879;28;20649;-88
2022/09/25 05:03:37;;;;;;;4.47;4.07;;;10.20;99.90;;;;;;5035193;28;20198;-89
2022/09/25 05:09:26;;;;;;;5.82;4.22;;;10.30;99.90;;;;;;5033903;28;20744;-88
2022/09/25 05:11:53;;;;;;;5.53;5.03;;;10.30;99.90;;;;;;5037272;28;20194;-88
2022/09/25 05:14:25;;;;;;;5.55;5.05;;;10.30;99.90;;;;;;5037589;28;20544;-88
2022/09/25 05:16:54;;;;;;;4.20;3.90;;;10.50;99.90;;;;;;5044630;28;20198;-87
2022/09/25 05:19:26;;;;;;;4.38;3.92;;;10.50;99.90;;;;;;5037814;28;20561;-89
2022/09/25 05:22:08;;;;;;;4.60;4.20;;;10.60;99.90;;;;;;5034058;28;20684;-89
2022/09/25 05:24:37;;;;;;;4.00;3.65;;;10.70;99.90;;;;;;5037437;28;20191;-88
2022/09/25 05:27:57;;;;;;;5.25;3.92;;;10.70;99.90;;;;;;5034607;28;20642;-89
2022/09/25 05:30:26;;;;;;;5.32;3.90;;;10.70;99.90;;;;;;5028923;28;20583;-88
2022/09/25 05:33:09;;;;;;;5.00;3.88;;;10.70;99.90;;;;;;5037206;28;20201;-88
2022/09/25 05:35:37;;;;;;;4.53;4.13;;;10.80;99.90;;;;;;5034987;28;20269;-89
2022/09/25 05:38:05;;;;;;;5.35;4.85;;;10.70;99.90;;;;;;5037238;28;20202;-88
2022/09/25 05:40:44;;;;;;;4.95;4.30;;;10.80;99.90;;;;;;5035164;28;20208;-88
2022/09/25 05:43:13;;;;;;;4.55;4.00;;;10.80;99.90;;;;;;5038104;28;20252;-89
2022/09/25 05:45:43;;;;;;;5.15;4.65;;;10.70;99.90;;;;;;5034443;28;20202;-90
2022/09/25 05:48:38;;;;;;;4.68;4.18;;;10.80;99.90;;;;;;5036777;28;20206;-88
2022/09/25 05:51:49;;;;;;;6.85;6.03;;;10.80;99.90;;;;;;5037141;28;20222;-87
2022/09/25 05:54:20;;;;;;;5.80;5.20;;;11.00;99.90;;;;;;5028860;28;20212;-88
2022/09/25 05:56:56;;;;;;;5.40;4.15;;;11.00;99.90;;;;;;5021860;28;20569;-88
2022/09/25 05:59:26;;;;;;;4.78;4.38;;;10.90;99.90;;;;;;5026803;28;20202;-90
2022/09/25 06:01:55;;;;;;;4.90;4.20;;;10.90;99.90;;;;;;5036073;28;20205;-89
2022/09/25 06:04:33;;;;;;;4.60;4.20;;;10.80;99.90;;;;;;5031178;28;20209;-90
2022/09/25 06:07:01;;;;;;;6.43;4.60;;;10.70;99.90;;;;;;5024554;28;20206;-89
2022/09/25 06:09:28;;;;;;;8.82;7.65;;;10.70;99.90;;;;;;5035445;28;20224;-89
2022/09/25 06:11:55;;;;;;;6.15;4.03;;;10.70;99.90;;;;;;5036371;28;20203;-87
2022/09/25 06:14:31;;;;;;;5.88;4.28;;;10.80;99.90;;;;;;5036598;28;20199;-88
2022/09/25 06:17:13;;;;;;;4.47;3.75;;;10.80;99.90;;;;;;5037140;28;20244;-88
2022/09/25 06:20:20;;;;;;;6.32;4.10;;;10.80;99.90;;;;;;5036859;28;20555;-88
2022/09/25 06:22:58;;;;;;;4.30;3.97;;;10.90;99.90;;;;;;5029868;28;20654;-88
2022/09/25 06:25:27;;;;;;;4.50;4.03;;;10.80;99.90;;;;;;5034948;28;20234;-89
2022/09/25 06:31:31;;;;;;;5.03;4.15;;;10.90;99.90;;;;;;5031371;28;20331;-89
2022/09/25 06:34:31;;;;;;;4.60;4.20;;;10.90;99.90;;;;;;5040003;28;20191;-87
2022/09/25 06:37:19;;;;;;;4.47;4.07;;;11.00;99.90;;;;;;5040356;28;20199;-88
2022/09/25 06:39:47;;;;;;;4.75;4.35;;;11.00;99.90;;;;;;5040728;28;20199;-87
2022/09/25 06:42:54;;;;;;;4.55;4.15;;;11.00;99.90;;;;;;5041164;28;20593;-88
2022/09/25 06:46:02;;;;;;;6.50;4.40;;;11.00;99.90;;;;;;5042003;28;20201;-88
2022/09/25 06:48:44;;;;;;;5.28;4.78;;;11.10;99.90;;;;;;5041232;28;20260;-87
2022/09/25 06:51:27;;;;;;;4.90;4.43;;;11.20;99.90;;;;;;5034482;28;20191;-88
2022/09/25 06:57:26;;;;;;;5.53;4.20;;;11.20;99.90;;;;;;5040349;28;20205;-89
2022/09/25 06:59:54;;;;;;;4.60;4.20;;;11.40;99.90;;;;;;5030261;28;20200;-89
2022/09/25 07:05:32;;;;;;;4.80;4.30;;;11.50;99.90;;;;;;5034826;28;20269;-87
2022/09/25 07:08:08;;;;;;;4.68;4.28;;;11.50;99.90;;;;;;5028680;28;20290;-87
2022/09/25 07:11:01;;;;;;;4.00;3.70;;;11.60;99.90;;;;;;5031154;28;20283;-89
2022/09/25 07:13:45;;;;;;;5.05;4.43;;;11.60;99.90;;;;;;5030500;28;20203;-88
2022/09/25 07:16:15;;;;;;;4.30;3.90;;;11.70;99.90;;;;;;5032669;28;20198;-89
2022/09/25 07:18:45;;;;;;;4.60;4.20;;;11.80;99.90;;;;;;5030379;28;20565;-87
2022/09/25 07:21:22;;;;;;;4.60;4.20;;;11.90;99.90;;;;;;5028636;28;20209;-87
2022/09/25 07:23:50;;;;;;;4.75;4.35;;;11.90;99.90;;;;;;5028480;28;20211;-86
2022/09/25 07:26:21;;;;;;;5.28;4.38;;;11.90;99.90;;;;;;5034054;28;20197;-86
2022/09/25 07:28:54;;;;;;;4.20;3.90;;;12.00;99.90;;;;;;5028294;28;20199;-85
2022/09/25 07:31:23;;;;;;;4.40;4.07;;;12.10;99.90;;;;;;5027211;28;20203;-88
2022/09/25 07:33:58;;;;;;;4.47;4.07;;;12.40;99.90;;;;;;5022399;28;20205;-88
2022/09/25 07:37:01;;;;;;;5.05;4.18;;;12.60;99.90;;;;;;5019775;28;20217;-92
2022/09/25 07:40:19;;;;;;;4.40;4.00;;;12.70;99.90;;;;;;5021877;28;20197;-86
2022/09/25 07:42:50;;;;;;;4.93;4.50;;;12.70;99.90;;;;;;5019582;28;20188;-86
2022/09/25 07:45:18;;;;;;;5.45;4.63;;;12.90;99.90;;;;;;5023448;28;20208;-89
2022/09/25 07:47:50;;;;;;;5.18;4.30;;;12.80;99.90;;;;;;5032840;28;20195;-89
2022/09/25 07:50:17;;;;;;;4.15;3.80;;;13.00;99.90;;;;;;5031433;28;20219;-87
2022/09/25 07:52:50;;;;;;;4.18;3.70;;;13.20;99.80;;;;;;5029992;28;20717;-88
2022/09/25 07:55:32;;;;;;;5.38;4.07;;;13.50;99.70;;;;;;5032734;28;20547;-88
2022/09/25 07:58:02;;;;;;;6.18;4.05;;;13.70;99.20;;;;;;5030366;28;20674;-88
2022/09/25 08:01:00;;;;;;;4.47;4.07;;;13.90;99.20;;;;;;5027370;28;20198;-88
2022/09/25 08:03:49;;;;;;;5.22;4.72;;;14.10;98.70;;;;;;5029547;28;20206;-89
2022/09/25 08:06:20;;;;;;;5.10;4.70;;;14.30;98.70;;;;;;5028919;28;20238;-87
2022/09/25 08:08:50;;;;;;;4.97;4.53;;;14.70;96.80;;;;;;5022765;28;20202;-87
2022/09/25 08:11:17;;;;;;;6.15;5.55;;;14.80;96.50;;;;;;5015825;28;20714;-87
2022/09/25 08:13:49;;;;;;;6.03;5.43;;;14.60;96.90;;;;;;5015067;28;20199;-87
2022/09/25 08:16:33;;;;;;;5.78;5.28;;;14.70;96.80;;;;;;5020821;28;20202;-87
2022/09/25 08:19:43;;;;;;;6.03;5.53;;;14.60;96.40;;;;;;5019835;28;20213;-88
2022/09/25 08:22:26;;;;;;;7.68;5.80;;;14.70;96.80;;;;;;5017943;28;20203;-87
2022/09/25 08:24:53;;;;;;;8.43;6.55;;;14.70;96.80;;;;;;5016221;28;20194;-86
2022/09/25 08:27:26;;;;;;;8.05;6.82;;;14.90;96.50;;;;;;5025530;28;20200;-87
2022/09/25 08:30:25;;;;;;;7.68;6.85;;;14.90;96.40;;;;;;5031407;28;20225;-86
2022/09/25 08:32:57;;;;;;;7.68;6.97;;;15.10;96.90;;;;;;5031885;28;20203;-86
2022/09/25 08:35:39;;;;;;;7.55;6.85;;;15.10;96.50;;;;;;5030616;28;20199;-86
2022/09/25 08:38:14;;;;;;;7.25;6.55;;;15.20;96.20;;;;;;5025704;28;20277;-86
2022/09/25 08:40:51;;;;;;;8.00;7.30;;;15.40;95.70;;;;;;5028719;28;20213;-86
2022/09/25 08:43:23;;;;;;;8.45;7.65;;;15.40;95.20;;;;;;5029969;28;20213;-86
2022/09/25 08:49:05;;;;;;;8.75;7.95;;;15.40;94.50;;;;;;5028384;28;20725;-87
2022/09/25 08:51:38;;;;;;;11.13;8.70;;;15.50;94.40;;;;;;5021290;28;20223;-87
2022/09/25 08:54:24;;;;;;;13.70;12.35;;;15.30;93.90;;;;;;5019773;28;20198;-87
2022/09/25 08:57:11;;;;;;;10.88;9.80;;;15.10;95.50;;;;;;5019435;28;20214;-86
2022/09/25 08:59:43;;;;;;;11.35;10.25;;;15.40;94.20;;;;;;5024932;28;20206;-88
2022/09/25 09:02:17;;;;;;;10.27;9.27;;;15.30;95.20;;;;;;5031962;28;20197;-87
2022/09/25 09:04:50;;;;;;;11.48;10.27;;;15.40;94.70;;;;;;5030209;28;20224;-87
2022/09/25 09:07:24;;;;;;;11.45;10.30;;;15.40;95.00;;;;;;5033317;28;20195;-88
2022/09/25 09:09:57;;;;;;;11.32;10.15;;;15.30;94.90;;;;;;5030906;28;20313;-88
2022/09/25 09:12:34;;;;;;;10.65;9.60;;;15.30;94.40;;;;;;5033272;28;21022;-88
2022/09/25 09:15:16;;;;;;;11.18;10.18;;;15.20;94.70;;;;;;5029329;28;20289;-87
2022/09/25 09:17:50;;;;;;;11.85;10.65;;;15.10;93.90;;;;;;5025793;28;20217;-88
2022/09/25 09:20:28;;;;;;;11.18;10.07;;;15.20;94.40;;;;;;5030226;28;20214;-88
2022/09/25 09:22:57;;;;;;;11.00;9.90;;;15.20;94.40;;;;;;5028428;28;20198;-88
2022/09/25 09:25:30;;;;;;;11.05;9.95;;;15.00;94.60;;;;;;5029579;28;20285;-88
2022/09/25 09:28:20;;;;;;;11.80;10.60;;;14.90;95.40;;;;;;5030399;28;20206;-88
2022/09/25 09:30:56;;;;;;;11.98;10.48;;;14.80;95.50;;;;;;5024908;28;20304;-87
2022/09/25 09:33:46;;;;;;;12.20;10.88;;;14.70;95.80;;;;;;5029466;28;20190;-87
2022/09/25 09:36:29;;;;;;;12.85;10.82;;;14.50;96.20;;;;;;5031102;28;20206;-88
2022/09/25 09:39:03;;;;;;;12.23;10.93;;;14.40;96.80;;;;;;5032266;28;20195;-88
2022/09/25 09:41:49;;;;;;;12.70;11.50;;;14.60;96.00;;;;;;5030584;28;21091;-88
2022/09/25 09:44:38;;;;;;;12.45;11.15;;;14.40;96.80;;;;;;5033755;28;20202;-87
2022/09/25 09:47:13;;;;;;;13.15;11.60;;;14.40;96.80;;;;;;5033136;28;20640;-86
2022/09/25 09:49:52;;;;;;;12.02;10.82;;;14.40;97.40;;;;;;5025958;28;20194;-86
2022/09/25 09:52:24;;;;;;;12.35;11.23;;;14.80;96.90;;;;;;5023810;28;20210;-87
2022/09/25 09:54:55;;;;;;;11.70;10.50;;;15.10;95.40;;;;;;5027072;28;20225;-87
2022/09/25 09:57:26;;;;;;;12.88;10.95;;;15.60;93.70;;;;;;5023354;28;20203;-87
2022/09/25 10:00:00;;;;;;;12.43;10.45;;;15.80;92.60;;;;;;5024633;28;20205;-87
2022/09/25 10:02:58;;;;;;;11.88;10.60;;;15.90;92.70;;;;;;5029808;28;20195;-87
2022/09/25 10:05:46;;;;;;;12.25;10.70;;;15.80;92.10;;;;;;5027839;28;20215;-87
2022/09/25 10:08:17;;;;;;;11.45;10.25;;;16.40;91.60;;;;;;5035891;28;20209;-84
2022/09/25 10:10:47;;;;;;;10.98;9.88;;;16.90;91.00;;;;;;5042280;28;20641;-84
2022/09/25 10:13:19;;;;;;;10.73;9.68;;;17.20;89.30;;;;;;5039420;28;20203;-84
2022/09/25 10:15:53;;;;;;;11.32;9.63;;;17.30;86.10;;;;;;5039297;28;20202;-84
2022/09/25 10:18:45;;;;;;;10.88;9.23;;;17.90;79.30;;;;;;5036001;28;20624;-84
2022/09/25 10:21:17;;;;;;;13.00;11.60;;;18.10;78.40;;;;;;5031816;28;20579;-83
2022/09/25 10:23:53;;;;;;;11.15;9.80;;;18.00;77.10;;;;;;5036969;28;20283;-84
2022/09/25 10:26:29;;;;;;;9.10;8.27;;;17.90;76.00;;;;;;5037765;28;20560;-83
2022/09/25 10:28:57;;;;;;;10.73;9.70;;;17.80;79.30;;;;;;5038837;28;20195;-84
2022/09/25 10:31:35;;;;;;;10.35;9.25;;;17.90;80.90;;;;;;5035301;28;20230;-84
2022/09/25 10:34:22;;;;;;;10.50;9.40;;;18.10;79.50;;;;;;5039863;28;20195;-84
2022/09/25 10:36:52;;;;;;;10.98;9.88;;;17.80;81.80;;;;;;5038629;28;20203;-84
2022/09/25 10:39:59;;;;;;;10.60;9.50;;;17.90;79.40;;;;;;5038865;28;20198;-84
2022/09/25 10:42:38;;;;;;;10.13;9.13;;;17.50;80.50;;;;;;5032565;28;20199;-83
2022/09/25 10:45:28;;;;;;;9.27;8.40;;;17.50;83.10;;;;;;5032361;28;20196;-84
2022/09/25 10:51:16;;;;;;;8.88;8.00;;;17.20;82.60;;;;;;5034894;28;20312;-83
2022/09/25 10:54:11;;;;;;;8.73;7.93;;;17.20;83.10;;;;;;5031883;28;20281;-83
2022/09/25 10:56:51;;;;;;;8.80;7.97;;;17.00;88.50;;;;;;5035664;28;20199;-84
2022/09/25 10:59:22;;;;;;;9.13;8.10;;;17.40;84.50;;;;;;5032004;28;20199;-83
2022/09/25 11:01:52;;;;;;;8.18;7.38;;;17.70;80.30;;;;;;5033005;28;20206;-83
2022/09/25 11:04:23;;;;;;;8.25;7.45;;;18.00;79.40;;;;;;5030132;28;20218;-84
2022/09/25 11:06:52;;;;;;;8.45;7.65;;;18.20;76.90;;;;;;5036916;28;20199;-84
2022/09/25 11:09:49;;;;;;;8.85;7.75;;;18.40;76.30;;;;;;5038655;28;20195;-83
2022/09/25 11:12:23;;;;;;;7.80;7.00;;;18.30;78.30;;;;;;5039382;28;20214;-83
2022/09/25 11:15:16;;;;;;;7.18;6.57;;;18.10;79.40;;;;;;5037971;28;20739;-84
2022/09/25 11:17:46;;;;;;;7.45;6.75;;;18.30;66.30;;;;;;5039007;28;20277;-83
2022/09/25 11:20:28;;;;;;;7.45;6.75;;;18.30;68.90;;;;;;5037538;28;20194;-83
2022/09/25 11:23:24;;;;;;;7.28;5.97;;;19.00;67.20;;;;;;5038994;28;20199;-83
2022/09/25 11:25:58;;;;;;;7.18;6.47;;;19.10;58.70;;;;;;5039100;28;20226;-83
2022/09/25 11:28:33;;;;;;;6.90;6.25;;;18.90;58.20;;;;;;5025536;28;20473;-84
2022/09/25 11:31:13;;;;;;;6.50;5.93;;;19.00;59.20;;;;;;5038480;28;20260;-84
2022/09/25 11:33:50;;;;;;;6.55;5.95;;;19.00;66.70;;;;;;5038246;28;20195;-84
2022/09/25 11:37:01;;;;;;;6.53;5.85;;;18.90;63.20;;;;;;5038778;28;20194;-83
2022/09/25 11:42:31;;;;;;;8.65;6.97;;;18.50;65.80;;;;;;5038571;28;20276;-83
2022/09/25 11:45:21;;;;;;;6.40;5.90;;;18.60;60.60;;;;;;5030398;28;20199;-83
2022/09/25 11:48:04;;;;;;;7.38;6.68;;;18.60;60.10;;;;;;5031853;28;20199;-83
2022/09/25 11:50:39;;;;;;;7.88;7.18;;;18.70;57.80;;;;;;5035355;28;20221;-83
2022/09/25 11:53:18;;;;;;;6.95;6.25;;;18.70;58.80;;;;;;5033744;28;20221;-83
2022/09/25 11:55:57;;;;;;;6.72;6.13;;;18.90;59.10;;;;;;5035546;28;20202;-84
2022/09/25 11:58:44;;;;;;;7.20;5.97;;;19.00;55.60;;;;;;5033669;28;20230;-83
2022/09/25 12:01:34;;;;;;;5.80;5.15;;;18.80;56.40;;;;;;5036521;28;20205;-84
2022/09/25 12:04:26;;;;;;;6.38;5.78;;;18.70;59.40;;;;;;5031073;28;20206;-84
2022/09/25 12:07:07;;;;;;;5.72;5.22;;;18.80;57.70;;;;;;5024782;28;20253;-83
2022/09/25 12:10:07;;;;;;;6.97;6.28;;;18.60;59.70;;;;;;5032699;28;20646;-84
2022/09/25 12:12:59;;;;;;;7.72;7.03;;;18.50;59.90;;;;;;5029193;28;20210;-83
2022/09/25 12:16:06;;;;;;;7.72;6.93;;;18.30;66.00;;;;;;5035917;28;20201;-83
2022/09/25 12:18:49;;;;;;;7.38;6.72;;;17.90;68.50;;;;;;5035522;28;20683;-83
2022/09/25 12:21:21;;;;;;;7.50;6.50;;;17.70;72.80;;;;;;5037649;28;20207;-83
2022/09/25 12:24:12;;;;;;;6.85;6.25;;;17.60;76.50;;;;;;5033475;28;20218;-87
2022/09/25 12:26:50;;;;;;;6.93;6.22;;;17.50;72.00;;;;;;5032623;28;20642;-87
2022/09/25 12:29:34;;;;;;;6.80;6.20;;;17.30;75.30;;;;;;5026590;28;20293;-86
2022/09/25 12:32:08;;;;;;;6.70;6.07;;;17.20;75.80;;;;;;5030874;28;20214;-86
2022/09/25 12:34:54;;;;;;;9.05;6.43;;;17.20;76.60;;;;;;5033559;28;20668;-86
2022/09/25 12:37:40;;;;;;;7.55;5.57;;;17.30;77.10;;;;;;5030503;28;20321;-86
2022/09/25 12:40:17;;;;;;;7.88;7.07;;;17.10;77.80;;;;;;5033759;28;20241;-86
2022/09/25 12:43:03;;;;;;;7.25;6.55;;;16.90;78.60;;;;;;5033350;28;20211;-86
2022/09/25 12:46:13;;;;;;;9.55;7.05;;;16.90;83.80;;;;;;5024913;28;20565;-87
2022/09/25 12:48:45;;;;;;;7.75;7.05;;;17.10;80.20;;;;;;5031134;28;20285;-86
2022/09/25 12:51:22;;;;;;;8.35;7.45;;;17.10;80.40;;;;;;5031833;28;20210;-86
2022/09/25 12:53:53;;;;;;;9.55;8.57;;;17.20;78.90;;;;;;5033646;28;20213;-86
2022/09/25 12:56:25;;;;;;;9.00;8.02;;;17.10;82.10;;;;;;5025786;28;20191;-86
2022/09/25 12:59:09;;;;;;;8.75;7.45;;;17.00;82.40;;;;;;5033862;28;20195;-85
2022/09/25 13:01:45;;;;;;;8.80;7.22;;;16.80;81.70;;;;;;5032394;28;20206;-85
2022/09/25 13:04:34;;;;;;;8.70;7.90;;;16.80;82.40;;;;;;5035517;28;20285;-85
2022/09/25 13:07:11;;;;;;;8.90;7.80;;;16.60;84.50;;;;;;5029920;28;20225;-86
2022/09/25 13:09:45;;;;;;;8.50;7.63;;;16.70;82.70;;;;;;5041991;28;20215;-86
2022/09/25 13:12:24;;;;;;;8.50;7.60;;;16.60;83.20;;;;;;5035841;28;20217;-86
2022/09/25 13:14:59;;;;;;;7.93;7.07;;;16.60;85.20;;;;;;5040464;28;20230;-86
2022/09/25 13:17:38;;;;;;;7.70;7.00;;;16.50;83.40;;;;;;5037268;28;20543;-86
2022/09/25 13:20:43;;;;;;;8.43;7.63;;;16.30;85.30;;;;;;5038668;28;20198;-86
2022/09/25 13:23:33;;;;;;;8.13;6.93;;;16.20;85.80;;;;;;5036259;28;20201;-86
2022/09/25 13:26:08;;;;;;;8.02;7.20;;;16.20;87.60;;;;;;5038170;28;20194;-86
2022/09/25 13:28:39;;;;;;;9.48;8.50;;;16.10;87.60;;;;;;5022356;28;20206;-86
2022/09/25 13:31:11;;;;;;;8.80;7.90;;;16.10;89.40;;;;;;5038657;28;20222;-86
2022/09/25 13:33:44;;;;;;;8.95;7.82;;;16.00;90.70;;;;;;5039227;28;20624;-86
2022/09/25 13:36:28;;;;;;;10.60;7.72;;;15.90;91.20;;;;;;5040875;28;20205;-86
2022/09/25 13:41:53;;;;;;;8.73;7.63;;;15.70;92.50;;;;;;4950070;29;20723;-86
2022/09/25 13:45:05;;;;;;;10.13;8.50;;;15.50;91.80;;;;;;4946857;29;20208;-86
2022/09/25 13:47:57;;;;;;;9.32;8.35;;;15.40;92.50;;;;;;4955026;29;20258;-86
2022/09/25 13:50:32;;;;;;;9.45;8.45;;;15.30;93.20;;;;;;4943408;29;20587;-86
2022/09/25 13:53:22;;;;;;;12.43;8.50;;;15.10;93.00;;;;;;4945959;29;20209;-86
2022/09/25 13:56:18;;;;;;;10.57;8.82;;;15.10;94.40;;;;;;4920062;29;20207;-86
2022/09/25 13:59:14;;;;;;;10.25;8.43;;;15.20;94.40;;;;;;4920347;29;20242;-86
2022/09/25 14:01:45;;;;;;;10.85;9.38;;;15.10;94.10;;;;;;4913711;29;20242;-86
2022/09/25 14:04:29;;;;;;;10.18;8.93;;;15.00;94.70;;;;;;4919028;29;20966;-86
2022/09/25 14:07:04;;;;;;;10.10;9.10;;;15.00;96.20;;;;;;4909604;29;20210;-85
2022/09/25 14:09:44;;;;;;;11.95;10.02;;;14.90;95.50;;;;;;4916348;29;20210;-85
2022/09/25 14:12:41;;;;;;;11.32;8.98;;;14.70;96.10;;;;;;4914906;29;20230;-86
2022/09/25 14:15:17;;;;;;;11.07;9.45;;;14.60;96.80;;;;;;4917095;28;20194;-86
2022/09/25 14:17:59;;;;;;;10.88;9.75;;;14.50;97.40;;;;;;4990514;28;20283;-86
2022/09/25 14:20:33;;;;;;;10.95;9.43;;;14.70;97.50;;;;;;4995520;28;20196;-86
2022/09/25 14:23:06;;;;;;;11.55;9.68;;;14.70;96.80;;;;;;4996068;28;20223;-86